sensor_id;sensor_type;location;lat;lon;timestamp;temperature;humidity
16118;DHT22;8163;50.118;5.342;2023-03-01T00:01:33;-0.80;57.30
16118;DHT22;8163;50.118;5.342;2023-03-01T00:04:03;-1.00;57.20
16118;DHT22;8163;50.118;5.342;2023-03-01T00:06:31;-0.90;57.40
16118;DHT22;8163;50.118;5.342;2023-03-01T00:08:59;-1.00;57.40
16118;DHT22;8163;50.118;5.342;2023-03-01T00:11:28;-0.90;57.60
16118;DHT22;8163;50.118;5.342;2023-03-01T00:13:57;-1.00;57.60
16118;DHT22;8163;50.118;5.342;2023-03-01T00:16:26;-1.00;57.80
16118;DHT22;8163;50.118;5.342;2023-03-01T00:18:54;-1.00;57.80
16118;DHT22;8163;50.118;5.342;2023-03-01T00:21:21;-1.00;57.80
16118;DHT22;8163;50.118;5.342;2023-03-01T00:23:52;-1.00;57.90
16118;DHT22;8163;50.118;5.342;2023-03-01T00:26:20;-1.00;58.10
16118;DHT22;8163;50.118;5.342;2023-03-01T00:28:47;-1.10;58.10
16118;DHT22;8163;50.118;5.342;2023-03-01T00:31:16;-1.10;58.00
16118;DHT22;8163;50.118;5.342;2023-03-01T00:33:44;-1.10;58.20
16118;DHT22;8163;50.118;5.342;2023-03-01T00:36:12;-1.10;58.30
16118;DHT22;8163;50.118;5.342;2023-03-01T00:38:42;-1.10;58.30
16118;DHT22;8163;50.118;5.342;2023-03-01T00:41:13;-1.10;58.40
16118;DHT22;8163;50.118;5.342;2023-03-01T00:43:40;-1.10;58.40
16118;DHT22;8163;50.118;5.342;2023-03-01T00:46:09;-1.20;58.30
16118;DHT22;8163;50.118;5.342;2023-03-01T00:48:37;-1.20;58.30
16118;DHT22;8163;50.118;5.342;2023-03-01T00:51:06;-1.20;58.40
16118;DHT22;8163;50.118;5.342;2023-03-01T00:53:33;-1.20;58.50
16118;DHT22;8163;50.118;5.342;2023-03-01T00:56:01;-1.20;58.50
16118;DHT22;8163;50.118;5.342;2023-03-01T00:58:30;-1.20;58.60
16118;DHT22;8163;50.118;5.342;2023-03-01T01:00:57;-1.30;58.50
16118;DHT22;8163;50.118;5.342;2023-03-01T01:03:24;-1.30;58.60
16118;DHT22;8163;50.118;5.342;2023-03-01T01:05:51;-1.30;58.60
16118;DHT22;8163;50.118;5.342;2023-03-01T01:08:20;-1.30;58.70
16118;DHT22;8163;50.118;5.342;2023-03-01T01:10:47;-1.40;58.60
16118;DHT22;8163;50.118;5.342;2023-03-01T01:13:15;-1.40;58.70
16118;DHT22;8163;50.118;5.342;2023-03-01T01:15:44;-1.30;59.00
16118;DHT22;8163;50.118;5.342;2023-03-01T01:18:12;-1.40;59.00
16118;DHT22;8163;50.118;5.342;2023-03-01T01:20:39;-1.40;59.00
16118;DHT22;8163;50.118;5.342;2023-03-01T01:23:06;-1.40;59.00
16118;DHT22;8163;50.118;5.342;2023-03-01T01:25:35;-1.50;59.00
16118;DHT22;8163;50.118;5.342;2023-03-01T01:28:03;-1.40;59.10
16118;DHT22;8163;50.118;5.342;2023-03-01T01:30:30;-1.50;59.10
16118;DHT22;8163;50.118;5.342;2023-03-01T01:32:59;-1.50;59.10
16118;DHT22;8163;50.118;5.342;2023-03-01T01:35:27;-1.50;59.10
16118;DHT22;8163;50.118;5.342;2023-03-01T01:37:54;-1.50;59.30
16118;DHT22;8163;50.118;5.342;2023-03-01T01:40:23;-1.60;59.40
16118;DHT22;8163;50.118;5.342;2023-03-01T01:42:50;-1.50;59.60
16118;DHT22;8163;50.118;5.342;2023-03-01T01:45:31;-1.50;59.60
16118;DHT22;8163;50.118;5.342;2023-03-01T01:48:03;-1.50;59.60
16118;DHT22;8163;50.118;5.342;2023-03-01T01:50:32;-1.60;59.50
16118;DHT22;8163;50.118;5.342;2023-03-01T01:53:06;-1.60;59.50
16118;DHT22;8163;50.118;5.342;2023-03-01T01:55:37;-1.60;59.50
16118;DHT22;8163;50.118;5.342;2023-03-01T01:58:08;-1.60;59.50
16118;DHT22;8163;50.118;5.342;2023-03-01T02:00:38;-1.60;59.50
16118;DHT22;8163;50.118;5.342;2023-03-01T02:03:15;-1.70;59.50
16118;DHT22;8163;50.118;5.342;2023-03-01T02:05:52;-1.70;59.50
16118;DHT22;8163;50.118;5.342;2023-03-01T02:08:23;-1.70;59.70
16118;DHT22;8163;50.118;5.342;2023-03-01T02:10:53;-1.70;59.80
16118;DHT22;8163;50.118;5.342;2023-03-01T02:13:22;-1.70;59.90
16118;DHT22;8163;50.118;5.342;2023-03-01T02:15:49;-1.70;60.00
16118;DHT22;8163;50.118;5.342;2023-03-01T02:18:20;-1.70;60.20
16118;DHT22;8163;50.118;5.342;2023-03-01T02:20:57;-1.70;60.40
16118;DHT22;8163;50.118;5.342;2023-03-01T02:23:26;-1.70;60.50
16118;DHT22;8163;50.118;5.342;2023-03-01T02:25:58;-1.80;60.20
16118;DHT22;8163;50.118;5.342;2023-03-01T02:28:31;-1.80;60.10
16118;DHT22;8163;50.118;5.342;2023-03-01T02:30:59;-1.80;60.10
16118;DHT22;8163;50.118;5.342;2023-03-01T02:33:44;-1.80;60.20
16118;DHT22;8163;50.118;5.342;2023-03-01T02:36:16;-1.80;60.40
16118;DHT22;8163;50.118;5.342;2023-03-01T02:38:44;-1.90;60.50
16118;DHT22;8163;50.118;5.342;2023-03-01T02:41:16;-1.90;60.60
16118;DHT22;8163;50.118;5.342;2023-03-01T02:43:45;-1.80;60.80
16118;DHT22;8163;50.118;5.342;2023-03-01T02:46:15;-1.80;60.80
16118;DHT22;8163;50.118;5.342;2023-03-01T02:48:44;-1.90;60.70
16118;DHT22;8163;50.118;5.342;2023-03-01T02:51:23;-1.90;60.80
16118;DHT22;8163;50.118;5.342;2023-03-01T02:54:01;-1.90;60.80
16118;DHT22;8163;50.118;5.342;2023-03-01T02:56:32;-2.00;60.60
16118;DHT22;8163;50.118;5.342;2023-03-01T02:59:02;-2.10;60.60
16118;DHT22;8163;50.118;5.342;2023-03-01T03:01:29;-2.10;60.70
16118;DHT22;8163;50.118;5.342;2023-03-01T03:04:03;-2.10;60.80
16118;DHT22;8163;50.118;5.342;2023-03-01T03:06:30;-2.10;61.70
16118;DHT22;8163;50.118;5.342;2023-03-01T03:08:58;-2.20;60.90
16118;DHT22;8163;50.118;5.342;2023-03-01T03:11:25;-2.20;60.90
16118;DHT22;8163;50.118;5.342;2023-03-01T03:13:52;-2.20;61.00
16118;DHT22;8163;50.118;5.342;2023-03-01T03:16:21;-2.20;61.20
16118;DHT22;8163;50.118;5.342;2023-03-01T03:18:48;-2.20;61.40
16118;DHT22;8163;50.118;5.342;2023-03-01T03:21:16;-2.20;61.40
16118;DHT22;8163;50.118;5.342;2023-03-01T03:23:43;-2.20;61.50
16118;DHT22;8163;50.118;5.342;2023-03-01T03:26:10;-2.20;61.60
16118;DHT22;8163;50.118;5.342;2023-03-01T03:28:39;-2.20;61.80
16118;DHT22;8163;50.118;5.342;2023-03-01T03:31:07;-2.20;61.80
16118;DHT22;8163;50.118;5.342;2023-03-01T03:33:36;-2.20;61.80
16118;DHT22;8163;50.118;5.342;2023-03-01T03:36:03;-2.20;62.00
16118;DHT22;8163;50.118;5.342;2023-03-01T03:38:31;-2.20;62.00
16118;DHT22;8163;50.118;5.342;2023-03-01T03:41:04;-2.20;62.00
16118;DHT22;8163;50.118;5.342;2023-03-01T03:43:33;-2.20;62.20
16118;DHT22;8163;50.118;5.342;2023-03-01T03:46:01;-2.20;62.30
16118;DHT22;8163;50.118;5.342;2023-03-01T03:48:32;-2.20;62.30
16118;DHT22;8163;50.118;5.342;2023-03-01T03:51:01;-2.20;62.30
16118;DHT22;8163;50.118;5.342;2023-03-01T03:53:31;-2.30;62.30
16118;DHT22;8163;50.118;5.342;2023-03-01T03:56:00;-2.30;62.20
16118;DHT22;8163;50.118;5.342;2023-03-01T03:58:30;-2.30;63.00
16118;DHT22;8163;50.118;5.342;2023-03-01T04:00:58;-2.40;62.10
16118;DHT22;8163;50.118;5.342;2023-03-01T04:03:28;-2.50;62.30
16118;DHT22;8163;50.118;5.342;2023-03-01T04:05:57;-2.50;62.10
16118;DHT22;8163;50.118;5.342;2023-03-01T04:08:27;-2.50;62.20
16118;DHT22;8163;50.118;5.342;2023-03-01T04:10:58;-2.60;62.20
16118;DHT22;8163;50.118;5.342;2023-03-01T04:13:46;-2.60;62.30
16118;DHT22;8163;50.118;5.342;2023-03-01T04:16:13;-2.60;62.30
16118;DHT22;8163;50.118;5.342;2023-03-01T04:18:40;-2.60;62.30
16118;DHT22;8163;50.118;5.342;2023-03-01T04:21:07;-2.60;62.50
16118;DHT22;8163;50.118;5.342;2023-03-01T04:23:35;-2.60;62.60
16118;DHT22;8163;50.118;5.342;2023-03-01T04:26:02;-2.70;62.60
16118;DHT22;8163;50.118;5.342;2023-03-01T04:28:32;-2.70;62.70
16118;DHT22;8163;50.118;5.342;2023-03-01T04:31:03;-2.70;62.80
16118;DHT22;8163;50.118;5.342;2023-03-01T04:33:38;-2.70;62.80
16118;DHT22;8163;50.118;5.342;2023-03-01T04:36:06;-2.70;62.80
16118;DHT22;8163;50.118;5.342;2023-03-01T04:38:39;-2.70;62.90
16118;DHT22;8163;50.118;5.342;2023-03-01T04:41:07;-2.70;62.90
16118;DHT22;8163;50.118;5.342;2023-03-01T04:43:35;-2.70;62.90
16118;DHT22;8163;50.118;5.342;2023-03-01T04:46:02;-2.80;62.90
16118;DHT22;8163;50.118;5.342;2023-03-01T04:48:31;-2.80;63.00
16118;DHT22;8163;50.118;5.342;2023-03-01T04:51:00;-2.80;63.00
16118;DHT22;8163;50.118;5.342;2023-03-01T04:53:28;-2.80;63.20
16118;DHT22;8163;50.118;5.342;2023-03-01T04:55:57;-2.80;63.30
16118;DHT22;8163;50.118;5.342;2023-03-01T04:58:26;-2.80;63.40
16118;DHT22;8163;50.118;5.342;2023-03-01T05:00:54;-2.80;63.40
16118;DHT22;8163;50.118;5.342;2023-03-01T05:03:22;-2.80;63.50
16118;DHT22;8163;50.118;5.342;2023-03-01T05:05:51;-2.80;63.50
16118;DHT22;8163;50.118;5.342;2023-03-01T05:08:18;-2.90;63.40
16118;DHT22;8163;50.118;5.342;2023-03-01T05:10:48;-2.90;63.40
16118;DHT22;8163;50.118;5.342;2023-03-01T05:13:17;-2.90;63.40
16118;DHT22;8163;50.118;5.342;2023-03-01T05:15:47;-3.00;64.20
16118;DHT22;8163;50.118;5.342;2023-03-01T05:18:15;-3.00;63.60
16118;DHT22;8163;50.118;5.342;2023-03-01T05:20:43;-3.00;63.90
16118;DHT22;8163;50.118;5.342;2023-03-01T05:23:13;-3.00;64.00
16118;DHT22;8163;50.118;5.342;2023-03-01T05:25:40;-3.00;64.20
16118;DHT22;8163;50.118;5.342;2023-03-01T05:28:11;-3.00;64.40
16118;DHT22;8163;50.118;5.342;2023-03-01T05:30:41;-3.00;64.40
16118;DHT22;8163;50.118;5.342;2023-03-01T05:33:09;-3.00;64.70
16118;DHT22;8163;50.118;5.342;2023-03-01T05:35:39;-2.90;65.20
16118;DHT22;8163;50.118;5.342;2023-03-01T05:38:07;-2.90;65.60
16118;DHT22;8163;50.118;5.342;2023-03-01T05:40:35;-2.90;65.80
16118;DHT22;8163;50.118;5.342;2023-03-01T05:43:02;-2.80;66.10
16118;DHT22;8163;50.118;5.342;2023-03-01T05:45:31;-2.80;66.20
16118;DHT22;8163;50.118;5.342;2023-03-01T05:48:00;-2.80;66.20
16118;DHT22;8163;50.118;5.342;2023-03-01T05:50:29;-2.80;66.20
16118;DHT22;8163;50.118;5.342;2023-03-01T05:52:58;-2.70;66.30
16118;DHT22;8163;50.118;5.342;2023-03-01T05:55:26;-2.80;66.20
16118;DHT22;8163;50.118;5.342;2023-03-01T05:57:53;-2.80;66.40
16118;DHT22;8163;50.118;5.342;2023-03-01T06:00:21;-2.80;66.60
16118;DHT22;8163;50.118;5.342;2023-03-01T06:02:49;-2.80;66.70
16118;DHT22;8163;50.118;5.342;2023-03-01T06:05:18;-2.80;66.80
16118;DHT22;8163;50.118;5.342;2023-03-01T06:07:45;-2.80;67.00
16118;DHT22;8163;50.118;5.342;2023-03-01T06:10:14;-2.70;67.30
16118;DHT22;8163;50.118;5.342;2023-03-01T06:12:42;-2.80;67.10
16118;DHT22;8163;50.118;5.342;2023-03-01T06:15:10;-2.70;67.30
16118;DHT22;8163;50.118;5.342;2023-03-01T06:17:39;-2.70;67.20
16118;DHT22;8163;50.118;5.342;2023-03-01T06:20:10;-2.70;67.10
16118;DHT22;8163;50.118;5.342;2023-03-01T06:22:39;-2.70;67.10
16118;DHT22;8163;50.118;5.342;2023-03-01T06:25:08;-2.80;67.10
16118;DHT22;8163;50.118;5.342;2023-03-01T06:27:37;-2.80;67.10
16118;DHT22;8163;50.118;5.342;2023-03-01T06:30:05;-2.70;67.30
16118;DHT22;8163;50.118;5.342;2023-03-01T06:32:32;-2.70;67.40
16118;DHT22;8163;50.118;5.342;2023-03-01T06:34:59;-2.60;67.60
16118;DHT22;8163;50.118;5.342;2023-03-01T06:37:26;-2.60;67.60
16118;DHT22;8163;50.118;5.342;2023-03-01T06:39:55;-2.60;67.70
16118;DHT22;8163;50.118;5.342;2023-03-01T06:42:22;-2.50;68.00
16118;DHT22;8163;50.118;5.342;2023-03-01T06:44:49;-2.50;68.10
16118;DHT22;8163;50.118;5.342;2023-03-01T06:47:16;-2.40;68.20
16118;DHT22;8163;50.118;5.342;2023-03-01T06:49:43;-2.30;68.30
16118;DHT22;8163;50.118;5.342;2023-03-01T06:52:11;-2.10;68.60
16118;DHT22;8163;50.118;5.342;2023-03-01T06:54:38;-1.70;69.10
16118;DHT22;8163;50.118;5.342;2023-03-01T06:57:06;-1.20;69.80
16118;DHT22;8163;50.118;5.342;2023-03-01T06:59:33;-0.70;70.30
16118;DHT22;8163;50.118;5.342;2023-03-01T07:02:00;-0.50;70.50
16118;DHT22;8163;50.118;5.342;2023-03-01T07:04:27;0.00;71.10
16118;DHT22;8163;50.118;5.342;2023-03-01T07:06:56;0.50;71.60
16118;DHT22;8163;50.118;5.342;2023-03-01T07:09:24;1.00;72.40
16118;DHT22;8163;50.118;5.342;2023-03-01T07:11:51;1.90;73.40
16118;DHT22;8163;50.118;5.342;2023-03-01T07:14:19;2.80;74.50
16118;DHT22;8163;50.118;5.342;2023-03-01T07:16:47;3.30;75.00
16118;DHT22;8163;50.118;5.342;2023-03-01T07:19:14;2.70;74.30
16118;DHT22;8163;50.118;5.342;2023-03-01T07:21:41;2.20;73.60
16118;DHT22;8163;50.118;5.342;2023-03-01T07:24:08;2.20;73.10
16118;DHT22;8163;50.118;5.342;2023-03-01T07:26:36;2.30;72.80
16118;DHT22;8163;50.118;5.342;2023-03-01T07:29:04;2.70;73.00
16118;DHT22;8163;50.118;5.342;2023-03-01T07:31:33;4.00;73.90
16118;DHT22;8163;50.118;5.342;2023-03-01T07:34:00;5.10;75.00
16118;DHT22;8163;50.118;5.342;2023-03-01T07:36:27;6.30;75.80
16118;DHT22;8163;50.118;5.342;2023-03-01T07:38:54;7.00;76.00
16118;DHT22;8163;50.118;5.342;2023-03-01T07:41:22;7.60;75.80
16118;DHT22;8163;50.118;5.342;2023-03-01T07:43:49;8.10;75.20
16118;DHT22;8163;50.118;5.342;2023-03-01T07:46:16;8.60;74.60
16118;DHT22;8163;50.118;5.342;2023-03-01T07:48:46;9.20;74.10
16118;DHT22;8163;50.118;5.342;2023-03-01T07:51:13;9.60;73.00
16118;DHT22;8163;50.118;5.342;2023-03-01T07:53:40;9.80;71.50
16118;DHT22;8163;50.118;5.342;2023-03-01T07:56:11;9.90;70.10
16118;DHT22;8163;50.118;5.342;2023-03-01T07:58:41;9.20;68.30
16118;DHT22;8163;50.118;5.342;2023-03-01T08:01:11;8.90;67.30
16118;DHT22;8163;50.118;5.342;2023-03-01T08:03:39;9.10;66.90
16118;DHT22;8163;50.118;5.342;2023-03-01T08:06:09;9.40;66.30
16118;DHT22;8163;50.118;5.342;2023-03-01T08:08:37;9.70;65.80
16118;DHT22;8163;50.118;5.342;2023-03-01T08:11:06;10.20;64.10
16118;DHT22;8163;50.118;5.342;2023-03-01T08:13:34;10.60;63.70
16118;DHT22;8163;50.118;5.342;2023-03-01T08:16:02;10.70;63.20
16118;DHT22;8163;50.118;5.342;2023-03-01T08:18:29;11.00;62.60
16118;DHT22;8163;50.118;5.342;2023-03-01T08:21:01;11.30;61.60
16118;DHT22;8163;50.118;5.342;2023-03-01T08:23:30;11.40;60.30
16118;DHT22;8163;50.118;5.342;2023-03-01T08:26:04;12.00;60.70
16118;DHT22;8163;50.118;5.342;2023-03-01T08:28:32;12.50;60.00
16118;DHT22;8163;50.118;5.342;2023-03-01T08:31:02;12.90;60.10
16118;DHT22;8163;50.118;5.342;2023-03-01T08:33:29;13.20;58.60
16118;DHT22;8163;50.118;5.342;2023-03-01T08:36:03;13.40;57.50
16118;DHT22;8163;50.118;5.342;2023-03-01T08:38:34;13.40;56.30
16118;DHT22;8163;50.118;5.342;2023-03-01T08:41:02;13.70;56.40
16118;DHT22;8163;50.118;5.342;2023-03-01T08:43:29;14.00;56.00
16118;DHT22;8163;50.118;5.342;2023-03-01T08:45:56;14.20;55.30
16118;DHT22;8163;50.118;5.342;2023-03-01T08:48:23;14.40;55.30
16118;DHT22;8163;50.118;5.342;2023-03-01T08:50:50;14.70;54.50
16118;DHT22;8163;50.118;5.342;2023-03-01T08:53:17;14.80;53.50
16118;DHT22;8163;50.118;5.342;2023-03-01T08:55:46;15.00;53.10
16118;DHT22;8163;50.118;5.342;2023-03-01T08:58:13;15.10;52.20
16118;DHT22;8163;50.118;5.342;2023-03-01T09:00:40;15.30;51.90
16118;DHT22;8163;50.118;5.342;2023-03-01T09:03:07;15.50;51.60
16118;DHT22;8163;50.118;5.342;2023-03-01T09:05:34;15.80;51.10
16118;DHT22;8163;50.118;5.342;2023-03-01T09:08:02;15.80;51.40
16118;DHT22;8163;50.118;5.342;2023-03-01T09:10:29;16.00;49.60
16118;DHT22;8163;50.118;5.342;2023-03-01T09:12:59;16.10;49.60
16118;DHT22;8163;50.118;5.342;2023-03-01T09:15:25;16.30;49.40
16118;DHT22;8163;50.118;5.342;2023-03-01T09:17:52;16.50;49.10
16118;DHT22;8163;50.118;5.342;2023-03-01T09:20:20;16.60;48.70
16118;DHT22;8163;50.118;5.342;2023-03-01T09:22:47;16.80;48.50
16118;DHT22;8163;50.118;5.342;2023-03-01T09:25:15;16.90;48.20
16118;DHT22;8163;50.118;5.342;2023-03-01T09:27:42;17.00;47.70
16118;DHT22;8163;50.118;5.342;2023-03-01T09:30:11;17.20;47.80
16118;DHT22;8163;50.118;5.342;2023-03-01T09:32:38;17.30;47.30
16118;DHT22;8163;50.118;5.342;2023-03-01T09:35:08;17.50;47.40
16118;DHT22;8163;50.118;5.342;2023-03-01T09:37:36;17.70;46.60
16118;DHT22;8163;50.118;5.342;2023-03-01T09:40:04;17.80;46.00
16118;DHT22;8163;50.118;5.342;2023-03-01T09:42:33;17.80;45.60
16118;DHT22;8163;50.118;5.342;2023-03-01T09:45:03;17.90;45.30
16118;DHT22;8163;50.118;5.342;2023-03-01T09:47:34;17.80;44.00
16118;DHT22;8163;50.118;5.342;2023-03-01T09:50:06;17.80;44.30
16118;DHT22;8163;50.118;5.342;2023-03-01T09:52:40;17.90;44.30
16118;DHT22;8163;50.118;5.342;2023-03-01T09:55:11;18.00;43.70
16118;DHT22;8163;50.118;5.342;2023-03-01T09:57:45;18.20;43.80
16118;DHT22;8163;50.118;5.342;2023-03-01T10:00:25;18.40;44.00
16118;DHT22;8163;50.118;5.342;2023-03-01T10:02:59;18.60;43.40
16118;DHT22;8163;50.118;5.342;2023-03-01T10:05:38;18.60;43.00
16118;DHT22;8163;50.118;5.342;2023-03-01T10:08:27;18.30;41.00
16118;DHT22;8163;50.118;5.342;2023-03-01T10:10:57;18.10;41.00
16118;DHT22;8163;50.118;5.342;2023-03-01T10:13:28;18.20;41.90
16118;DHT22;8163;50.118;5.342;2023-03-01T10:15:59;18.40;41.60
16118;DHT22;8163;50.118;5.342;2023-03-01T10:18:30;18.30;40.70
16118;DHT22;8163;50.118;5.342;2023-03-01T10:21:00;18.30;40.60
16118;DHT22;8163;50.118;5.342;2023-03-01T10:23:29;18.30;40.20
16118;DHT22;8163;50.118;5.342;2023-03-01T10:26:11;18.30;40.00
16118;DHT22;8163;50.118;5.342;2023-03-01T10:28:49;18.40;40.10
16118;DHT22;8163;50.118;5.342;2023-03-01T10:31:24;18.50;39.90
16118;DHT22;8163;50.118;5.342;2023-03-01T10:33:56;18.30;39.30
16118;DHT22;8163;50.118;5.342;2023-03-01T10:36:24;18.20;39.10
16118;DHT22;8163;50.118;5.342;2023-03-01T10:38:53;18.10;39.10
16118;DHT22;8163;50.118;5.342;2023-03-01T10:41:21;18.00;39.10
16118;DHT22;8163;50.118;5.342;2023-03-01T10:43:51;18.30;39.90
16118;DHT22;8163;50.118;5.342;2023-03-01T10:46:26;18.60;39.50
16118;DHT22;8163;50.118;5.342;2023-03-01T10:49:13;18.70;40.30
16118;DHT22;8163;50.118;5.342;2023-03-01T10:51:41;18.70;38.80
16118;DHT22;8163;50.118;5.342;2023-03-01T10:54:17;18.80;39.40
16118;DHT22;8163;50.118;5.342;2023-03-01T10:56:49;18.90;39.10
16118;DHT22;8163;50.118;5.342;2023-03-01T10:59:26;18.90;38.90
16118;DHT22;8163;50.118;5.342;2023-03-01T11:02:04;19.20;39.80
16118;DHT22;8163;50.118;5.342;2023-03-01T11:04:33;19.00;37.80
16118;DHT22;8163;50.118;5.342;2023-03-01T11:07:02;18.90;38.00
16118;DHT22;8163;50.118;5.342;2023-03-01T11:09:32;18.80;38.00
16118;DHT22;8163;50.118;5.342;2023-03-01T11:12:04;18.80;37.90
16118;DHT22;8163;50.118;5.342;2023-03-01T11:14:36;18.80;37.40
16118;DHT22;8163;50.118;5.342;2023-03-01T11:17:12;18.90;37.80
16118;DHT22;8163;50.118;5.342;2023-03-01T11:19:42;19.00;37.40
16118;DHT22;8163;50.118;5.342;2023-03-01T11:22:12;18.90;37.20
16118;DHT22;8163;50.118;5.342;2023-03-01T11:24:41;19.20;38.10
16118;DHT22;8163;50.118;5.342;2023-03-01T11:27:17;19.50;38.20
16118;DHT22;8163;50.118;5.342;2023-03-01T11:29:46;19.40;36.40
16118;DHT22;8163;50.118;5.342;2023-03-01T11:32:18;19.50;37.10
16118;DHT22;8163;50.118;5.342;2023-03-01T11:34:54;19.60;36.90
16118;DHT22;8163;50.118;5.342;2023-03-01T11:37:32;19.50;36.10
16118;DHT22;8163;50.118;5.342;2023-03-01T11:40:10;19.60;36.50
16118;DHT22;8163;50.118;5.342;2023-03-01T11:42:52;19.90;37.00
16118;DHT22;8163;50.118;5.342;2023-03-01T11:45:24;19.90;36.80
16118;DHT22;8163;50.118;5.342;2023-03-01T11:48:05;20.10;37.30
16118;DHT22;8163;50.118;5.342;2023-03-01T11:50:39;20.20;37.10
16118;DHT22;8163;50.118;5.342;2023-03-01T11:53:42;20.40;37.20
16118;DHT22;8163;50.118;5.342;2023-03-01T11:56:25;20.50;36.80
16118;DHT22;8163;50.118;5.342;2023-03-01T11:59:24;20.50;36.80
16118;DHT22;8163;50.118;5.342;2023-03-01T12:02:12;20.50;36.40
16118;DHT22;8163;50.118;5.342;2023-03-01T12:05:14;20.30;36.20
16118;DHT22;8163;50.118;5.342;2023-03-01T12:07:53;20.40;36.40
16118;DHT22;8163;50.118;5.342;2023-03-01T12:10:26;20.60;36.90
16118;DHT22;8163;50.118;5.342;2023-03-01T12:13:13;20.60;36.50
16118;DHT22;8163;50.118;5.342;2023-03-01T12:15:54;20.60;36.50
16118;DHT22;8163;50.118;5.342;2023-03-01T12:18:53;20.60;36.40
16118;DHT22;8163;50.118;5.342;2023-03-01T12:21:35;20.50;35.90
16118;DHT22;8163;50.118;5.342;2023-03-01T12:27:12;20.40;36.40
16118;DHT22;8163;50.118;5.342;2023-03-01T12:29:54;20.40;36.30
16118;DHT22;8163;50.118;5.342;2023-03-01T12:32:40;20.50;36.40
16118;DHT22;8163;50.118;5.342;2023-03-01T12:35:21;20.60;36.30
16118;DHT22;8163;50.118;5.342;2023-03-01T12:37:56;20.60;36.50
16118;DHT22;8163;50.118;5.342;2023-03-01T12:40:59;20.50;36.40
16118;DHT22;8163;50.118;5.342;2023-03-01T12:43:36;20.60;36.50
16118;DHT22;8163;50.118;5.342;2023-03-01T12:46:18;20.60;36.80
16118;DHT22;8163;50.118;5.342;2023-03-01T12:48:54;20.60;36.80
16118;DHT22;8163;50.118;5.342;2023-03-01T12:51:26;20.60;37.00
16118;DHT22;8163;50.118;5.342;2023-03-01T12:53:58;20.60;36.90
16118;DHT22;8163;50.118;5.342;2023-03-01T12:56:32;20.30;37.00
16118;DHT22;8163;50.118;5.342;2023-03-01T12:59:07;20.00;36.00
16118;DHT22;8163;50.118;5.342;2023-03-01T13:01:42;19.90;36.60
16118;DHT22;8163;50.118;5.342;2023-03-01T13:04:19;19.60;36.50
16118;DHT22;8163;50.118;5.342;2023-03-01T13:06:57;19.50;36.80
16118;DHT22;8163;50.118;5.342;2023-03-01T13:09:29;19.60;37.20
16118;DHT22;8163;50.118;5.342;2023-03-01T13:12:00;19.50;37.20
16118;DHT22;8163;50.118;5.342;2023-03-01T13:14:43;19.40;37.20
16118;DHT22;8163;50.118;5.342;2023-03-01T13:17:29;19.40;37.30
16118;DHT22;8163;50.118;5.342;2023-03-01T13:19:57;19.20;37.20
16118;DHT22;8163;50.118;5.342;2023-03-01T13:22:30;19.00;37.20
16118;DHT22;8163;50.118;5.342;2023-03-01T13:25:03;18.80;37.40
16118;DHT22;8163;50.118;5.342;2023-03-01T13:27:40;18.80;37.90
16118;DHT22;8163;50.118;5.342;2023-03-01T13:30:39;18.70;37.80
16118;DHT22;8163;50.118;5.342;2023-03-01T13:36:46;18.30;37.70
16118;DHT22;8163;50.118;5.342;2023-03-01T13:39:29;18.20;37.70
16118;DHT22;8163;50.118;5.342;2023-03-01T13:41:59;17.90;37.50
16118;DHT22;8163;50.118;5.342;2023-03-01T13:44:30;17.70;37.50
16118;DHT22;8163;50.118;5.342;2023-03-01T13:47:03;17.50;37.50
16118;DHT22;8163;50.118;5.342;2023-03-01T13:49:42;17.30;37.80
16118;DHT22;8163;50.118;5.342;2023-03-01T13:52:32;17.20;37.90
16118;DHT22;8163;50.118;5.342;2023-03-01T13:55:04;16.90;37.90
16118;DHT22;8163;50.118;5.342;2023-03-01T13:57:34;16.70;38.00
16118;DHT22;8163;50.118;5.342;2023-03-01T14:36:46;13.80;35.60
16118;DHT22;8163;50.118;5.342;2023-03-01T14:39:18;13.50;36.40
16118;DHT22;8163;50.118;5.342;2023-03-01T14:41:46;13.20;37.10
16118;DHT22;8163;50.118;5.342;2023-03-01T14:44:18;12.90;37.50
16118;DHT22;8163;50.118;5.342;2023-03-01T14:46:46;12.60;37.90
16118;DHT22;8163;50.118;5.342;2023-03-01T14:49:15;12.40;38.00
16118;DHT22;8163;50.118;5.342;2023-03-01T14:51:49;12.20;38.20
16118;DHT22;8163;50.118;5.342;2023-03-01T14:54:23;12.00;38.30
16118;DHT22;8163;50.118;5.342;2023-03-01T14:56:52;11.80;38.50
16118;DHT22;8163;50.118;5.342;2023-03-01T14:59:21;11.60;38.50
16118;DHT22;8163;50.118;5.342;2023-03-01T15:01:49;11.30;38.50
16118;DHT22;8163;50.118;5.342;2023-03-01T15:04:18;11.00;38.60
16118;DHT22;8163;50.118;5.342;2023-03-01T15:06:49;10.90;39.00
16118;DHT22;8163;50.118;5.342;2023-03-01T15:09:17;10.80;39.40
16118;DHT22;8163;50.118;5.342;2023-03-01T15:11:44;10.70;39.60
16118;DHT22;8163;50.118;5.342;2023-03-01T15:14:28;10.60;39.60
16118;DHT22;8163;50.118;5.342;2023-03-01T15:16:56;10.40;39.90
16118;DHT22;8163;50.118;5.342;2023-03-01T15:19:24;10.20;39.90
16118;DHT22;8163;50.118;5.342;2023-03-01T15:21:54;10.10;40.20
16118;DHT22;8163;50.118;5.342;2023-03-01T15:24:24;10.00;40.30
16118;DHT22;8163;50.118;5.342;2023-03-01T15:29:48;9.90;41.90
16118;DHT22;8163;50.118;5.342;2023-03-01T15:32:28;9.80;41.80
16118;DHT22;8163;50.118;5.342;2023-03-01T15:35:37;9.70;42.00
16118;DHT22;8163;50.118;5.342;2023-03-01T15:38:29;9.60;42.30
16118;DHT22;8163;50.118;5.342;2023-03-01T15:41:03;9.40;42.20
16118;DHT22;8163;50.118;5.342;2023-03-01T15:43:41;9.20;42.40
16118;DHT22;8163;50.118;5.342;2023-03-01T15:46:27;9.20;42.90
16118;DHT22;8163;50.118;5.342;2023-03-01T15:48:57;9.20;43.30
16118;DHT22;8163;50.118;5.342;2023-03-01T15:51:32;9.10;43.20
16118;DHT22;8163;50.118;5.342;2023-03-01T15:54:04;9.00;43.40
16118;DHT22;8163;50.118;5.342;2023-03-01T15:56:32;9.00;43.60
16118;DHT22;8163;50.118;5.342;2023-03-01T15:59:01;8.90;43.80
16118;DHT22;8163;50.118;5.342;2023-03-01T16:01:29;8.90;44.00
16118;DHT22;8163;50.118;5.342;2023-03-01T16:03:56;8.80;44.20
16118;DHT22;8163;50.118;5.342;2023-03-01T16:06:24;8.70;44.30
16118;DHT22;8163;50.118;5.342;2023-03-01T16:08:52;8.60;44.50
16118;DHT22;8163;50.118;5.342;2023-03-01T16:11:20;8.50;44.80
16118;DHT22;8163;50.118;5.342;2023-03-01T16:13:48;8.40;44.90
16118;DHT22;8163;50.118;5.342;2023-03-01T16:16:15;8.40;45.10
16118;DHT22;8163;50.118;5.342;2023-03-01T16:18:46;8.30;45.40
16118;DHT22;8163;50.118;5.342;2023-03-01T16:21:15;8.20;45.60
16118;DHT22;8163;50.118;5.342;2023-03-01T16:23:43;8.10;45.60
16118;DHT22;8163;50.118;5.342;2023-03-01T16:26:11;8.00;45.70
16118;DHT22;8163;50.118;5.342;2023-03-01T16:28:40;8.00;45.90
16118;DHT22;8163;50.118;5.342;2023-03-01T16:31:07;7.80;46.20
16118;DHT22;8163;50.118;5.342;2023-03-01T16:33:34;7.70;46.40
16118;DHT22;8163;50.118;5.342;2023-03-01T16:36:06;7.60;46.70
16118;DHT22;8163;50.118;5.342;2023-03-01T16:38:34;7.50;46.70
16118;DHT22;8163;50.118;5.342;2023-03-01T16:41:01;7.50;46.80
16118;DHT22;8163;50.118;5.342;2023-03-01T16:43:29;7.40;46.80
16118;DHT22;8163;50.118;5.342;2023-03-01T16:45:57;7.30;46.90
16118;DHT22;8163;50.118;5.342;2023-03-01T16:48:25;7.30;47.10
16118;DHT22;8163;50.118;5.342;2023-03-01T16:50:59;7.20;47.10
16118;DHT22;8163;50.118;5.342;2023-03-01T16:53:27;7.10;47.30
16118;DHT22;8163;50.118;5.342;2023-03-01T16:55:55;7.00;47.20
16118;DHT22;8163;50.118;5.342;2023-03-01T16:58:22;7.00;47.40
16118;DHT22;8163;50.118;5.342;2023-03-01T17:00:50;6.90;47.50